Accident
Last updated: 24 April 2014
Statuts:Préliminaire
Date:mercredi 19 mai 2010
Heure:05:30
Type/Sous-type:Embraer 110P Bandeirante
Compagnie:Táxi Aéreo Weiss
Immatriculation: PT-GKQ
Numéro de série: 110125
Année de Fabrication: 1976
Moteurs: 2 Pratt & Whitney Canada PT6A-27
Equipage:victimes: 0 / à bord: 2
Passagers:victimes: 0 / à bord: 0
Total:victimes: 0 / à bord: 2
Dégats de l'appareil: Substantiels
Lieu de l'accident:0,5 km (0.3 milles) de Cascavel Airport, PR (CAC) (   Brésil) show on map
Phase de vol: A l'atterrissage (LDG)
Nature:Cargo
Aéroport de départ:Araçatuba Airport, SP (ARU/SBAU), Brésil
Aéroport de destination:Cascavel Airport, PR (CAC/SBCA), Brésil
Détails:
An EMB-110 Bandeirante turboprop plane was damaged in an off-airport landing near Cascavel Airport, PR (CAC), Brazil. Both pilots escaped unhurt.
The airplane operated on a cargo flight from Araçatuba Airport, SP (ARU) to Cascavel. Weather at the destination was poor with limited visibility in fog and a 100 ft overcast. The crew attempted to land, but touched down in a soy bean field about 500 m from the runway 33 threshold. The airplane traveled about 150 meters before coming to rest on its belly.
The only navigational aid available at Cascavel is NDB.

Weather reported about the time of the accident (05:30 local / 08:30 UTC)
SBCA 190800Z 33015KT 1200 -DZ BR PRFG OVC001 08/08 Q1014= [08:00 UTC: Wind 330 degrees at 15 knots; visibility 1200m; light drizzle, mist, partial fog; overcast at 100 ft; temperature 8°C, dew point 8°C; 1014 hPa]
SBCA 190900Z 32012KT 2000 -DZ BR PRFG OVC001 08/08 Q1014= [09:00 UTC: Wind 320 degrees at 12 knots; visibility 2000m; light drizzle, mist, partial fog; overcast at 100 ft; temperature 8°C, dew point 8°C; 1014 hPa]


Sources:
» Avião tenta pousar em aeroporto fechado e acaba em fazenda em Cascavel (PR) (Folha Online)
» Edson Dantas


Photos

photo of Embraer 110P Bandeirante PT-GKQ
PT-GKQ moved to Total Linhas Aéreas in November 1991 and was bought by Táxi Aéreo Weiss about 1998
Add your photo of this accident or aircraft
 

Plan
Ce plan montre l'aéroport de départ ainsi que la supposé destination du vol. La ligne fixe reliant les deux aéroports n'est pas le plan de vol exact.
La distance entre Araçatuba Airport, SP et Cascavel Airport, PR est de 530 km (331 miles).

Les informations ci-dessus ne représentent pas l'opinion de la 'Flight Safety Foundation' ou de 'Aviation Safety Network' sur les causes de l'accident. Ces informations prélimimaires sont basées sur les faits tels qui sont connus à ce jour.
languages: English Français Nederlands Deutsch Espanol

Share
Share